Time;durP1;ratioP1;P1;durP2;ratioP2;P2;SDS_P1;SDS_P2;PMS_P1;PMS_P2;Temp;Humidity;BMP_temperature;BMP_pressure;BME280_temperature;BME280_humidity;BME280_pressure;Samples;Min_cycle;Max_cycle;Signal;HPM_P1;HPM_P2
2024/01/25 00:02:23;;;;;;;19.10;3.22;;;;;;;7.19;91.16;102770.84;4995814;28;20078;-77
2024/01/25 00:04:49;;;;;;;17.02;3.28;;;;;;;7.17;91.32;102767.81;4978752;28;20055;-77
2024/01/25 00:07:16;;;;;;;22.85;3.83;;;;;;;7.13;91.44;102767.78;4996374;28;20082;-76
2024/01/25 00:09:43;;;;;;;15.15;3.35;;;;;;;7.10;91.84;102763.19;4994659;28;20058;-76
2024/01/25 00:12:09;;;;;;;21.08;4.15;;;;;;;7.08;91.75;102767.34;4995787;28;20532;-77
2024/01/25 00:14:36;;;;;;;24.55;3.83;;;;;;;7.04;91.77;102775.25;4996265;28;20503;-76
2024/01/25 00:17:03;;;;;;;17.33;3.38;;;;;;;7.02;92.18;102774.84;4996252;28;20534;-76
2024/01/25 00:19:29;;;;;;;22.27;4.00;;;;;;;7.00;92.23;102777.88;4994974;28;20042;-77
2024/01/25 00:21:56;;;;;;;17.98;3.53;;;;;;;6.98;92.54;102780.13;4995855;28;20050;-77
2024/01/25 00:24:23;;;;;;;23.33;4.03;;;;;;;6.95;92.63;102775.53;4995789;28;20053;-77
2024/01/25 00:26:49;;;;;;;17.60;3.63;;;;;;;6.91;92.98;102776.63;4995757;28;20047;-77
2024/01/25 00:29:18;;;;;;;30.13;4.60;;;;;;;6.89;93.06;102778.88;4995129;28;20050;-77
2024/01/25 00:31:44;;;;;;;26.67;3.97;;;;;;;6.87;93.28;102775.84;4995972;28;20125;-77
2024/01/25 00:34:11;;;;;;;20.27;3.50;;;;;;;6.84;93.34;102774.69;4996375;28;20078;-77
2024/01/25 00:36:38;;;;;;;19.20;3.33;;;;;;;6.82;93.40;102778.81;4997811;28;20049;-77
2024/01/25 00:39:05;;;;;;;18.27;3.67;;;;;;;6.78;93.63;102772.75;5000071;28;20053;-78
2024/01/25 00:41:33;;;;;;;22.70;4.03;;;;;;;6.76;93.91;102777.66;5002718;28;20051;-78
2024/01/25 00:43:59;;;;;;;19.15;3.60;;;;;;;6.74;94.10;102790.47;5006343;28;20107;-78
2024/01/25 00:46:26;;;;;;;24.83;4.43;;;;;;;6.71;94.25;102785.91;5004298;28;20098;-78
2024/01/25 00:48:53;;;;;;;23.95;3.85;;;;;;;6.67;94.49;102784.00;5001496;28;20047;-78
2024/01/25 00:51:23;;;;;;;17.27;2.85;;;;;;;6.64;94.44;102787.34;4997978;28;20155;-77
2024/01/25 00:53:50;;;;;;;19.75;3.60;;;;;;;6.62;94.83;102791.50;4996841;28;20047;-77
2024/01/25 00:56:17;;;;;;;23.17;3.90;;;;;;;6.58;94.99;102796.75;4996037;28;20589;-76
2024/01/25 00:58:43;;;;;;;17.88;3.65;;;;;;;6.55;95.04;102797.47;4995011;28;20051;-77
2024/01/25 01:01:10;;;;;;;18.85;3.33;;;;;;;6.52;95.08;102782.31;4995260;28;20050;-77
2024/01/25 01:03:37;;;;;;;20.00;3.28;;;;;;;6.49;95.23;102795.50;4994966;28;20071;-77
2024/01/25 01:06:04;;;;;;;20.85;3.45;;;;;;;6.47;95.48;102809.09;4996140;28;20187;-77
2024/01/25 01:08:31;;;;;;;15.23;3.17;;;;;;;6.44;95.87;102812.44;4996183;28;20043;-77
2024/01/25 01:10:58;;;;;;;22.38;3.90;;;;;;;6.43;96.01;102807.50;4996431;28;20043;-77
2024/01/25 01:13:25;;;;;;;23.52;4.03;;;;;;;6.39;96.08;102798.78;4996606;28;20098;-77
2024/01/25 01:15:51;;;;;;;30.02;4.38;;;;;;;6.35;96.25;102807.44;4995118;28;20045;-77
2024/01/25 01:18:18;;;;;;;19.90;3.75;;;;;;;6.32;96.39;102812.69;4996272;28;20049;-77
2024/01/25 01:20:44;;;;;;;20.70;3.42;;;;;;;6.29;96.76;102818.69;4995114;28;20053;-77
2024/01/25 01:23:11;;;;;;;24.35;3.40;;;;;;;6.26;96.50;102819.41;4995864;28;20045;-77
2024/01/25 01:25:37;;;;;;;15.25;3.65;;;;;;;6.24;97.16;102825.06;4991015;28;20046;-77
2024/01/25 01:28:04;;;;;;;19.15;3.78;;;;;;;6.21;97.16;102823.13;4996185;28;20054;-76
2024/01/25 01:30:31;;;;;;;25.65;3.83;;;;;;;6.17;97.33;102819.69;4994756;28;20051;-77
2024/01/25 01:32:57;;;;;;;23.63;4.72;;;;;;;6.13;97.25;102818.88;4995669;28;20039;-76
2024/01/25 01:35:24;;;;;;;20.42;3.63;;;;;;;6.09;97.63;102818.06;4995569;28;20080;-76
2024/01/25 01:37:51;;;;;;;23.65;4.25;;;;;;;6.07;97.90;102838.03;4995098;28;20102;-76
2024/01/25 01:40:18;;;;;;;18.55;3.38;;;;;;;6.02;97.82;102825.88;4993851;28;20053;-75
2024/01/25 01:42:45;;;;;;;27.98;3.97;;;;;;;5.98;98.52;102825.88;4994874;28;20462;-76
2024/01/25 01:45:12;;;;;;;21.92;3.85;;;;;;;5.94;98.43;102821.66;4994786;28;20047;-77
2024/01/25 01:47:40;;;;;;;22.65;3.85;;;;;;;5.91;98.69;102822.34;4993769;28;20047;-77
2024/01/25 01:50:08;;;;;;;29.17;4.35;;;;;;;5.87;98.97;102821.50;4995034;28;20047;-76
2024/01/25 01:52:36;;;;;;;18.63;3.80;;;;;;;5.81;99.08;102830.84;4995260;28;20751;-77
2024/01/25 01:55:03;;;;;;;20.80;4.20;;;;;;;5.77;99.28;102825.53;4979300;28;20047;-78
2024/01/25 01:57:30;;;;;;;25.50;4.13;;;;;;;5.74;99.50;102825.47;4997681;28;20050;-78
2024/01/25 02:00:00;;;;;;;18.05;3.53;;;;;;;5.69;99.79;102829.94;4998682;28;20829;-78
2024/01/25 02:02:37;;;;;;;21.42;4.00;;;;;;;5.66;99.97;102838.56;4996449;28;20047;-77
2024/01/25 02:05:03;;;;;;;32.45;4.00;;;;;;;5.63;100.00;102844.56;4995055;28;20078;-77
2024/01/25 02:07:30;;;;;;;17.05;3.50;;;;;;;5.59;100.00;102851.69;4994713;28;21699;-77
2024/01/25 02:09:57;;;;;;;22.42;3.95;;;;;;;5.55;100.00;102842.94;4995497;28;20110;-77
2024/01/25 02:12:24;;;;;;;21.98;4.25;;;;;;;5.52;100.00;102838.38;4994692;28;20618;-77
2024/01/25 02:14:50;;;;;;;24.25;3.90;;;;;;;5.50;100.00;102853.81;4994176;28;20042;-77
2024/01/25 02:17:17;;;;;;;17.90;4.13;;;;;;;5.46;100.00;102858.25;4995493;28;20514;-77
2024/01/25 02:19:44;;;;;;;17.42;4.07;;;;;;;5.44;100.00;102862.38;4994646;28;20625;-77
2024/01/25 02:22:10;;;;;;;20.65;3.40;;;;;;;5.41;100.00;102865.72;4994556;28;20050;-78
2024/01/25 02:24:37;;;;;;;21.45;4.40;;;;;;;5.38;100.00;102880.38;4994193;28;20042;-76
2024/01/25 02:27:05;;;;;;;22.20;3.78;;;;;;;5.34;100.00;102874.28;4995552;28;20035;-76
2024/01/25 02:29:31;;;;;;;25.70;4.93;;;;;;;5.30;100.00;102874.22;4994510;28;20055;-76
2024/01/25 02:31:58;;;;;;;29.15;4.05;;;;;;;5.26;100.00;102870.75;4994119;28;20043;-76
2024/01/25 02:34:24;;;;;;;19.95;3.50;;;;;;;5.24;100.00;102872.19;4994230;28;20049;-77
2024/01/25 02:36:51;;;;;;;23.48;3.22;;;;;;;5.21;100.00;102872.91;4995051;28;20051;-77
2024/01/25 02:39:18;;;;;;;24.30;4.40;;;;;;;5.19;100.00;102875.16;4994639;28;20400;-77
2024/01/25 02:41:44;;;;;;;22.90;3.70;;;;;;;5.15;100.00;102882.25;4991098;28;20528;-77
2024/01/25 02:44:11;;;;;;;20.67;3.80;;;;;;;5.12;100.00;102880.31;4994118;28;20038;-76
2024/01/25 02:46:38;;;;;;;22.20;4.47;;;;;;;5.06;100.00;102890.38;4993695;28;20125;-77
2024/01/25 02:49:04;;;;;;;26.02;4.30;;;;;;;5.00;100.00;102881.97;4993917;28;20052;-76
2024/01/25 02:51:31;;;;;;;22.35;3.75;;;;;;;4.96;100.00;102877.75;4993830;28;20062;-76
2024/01/25 02:53:58;;;;;;;19.25;3.17;;;;;;;4.93;100.00;102889.00;4993888;28;20602;-76
2024/01/25 02:56:25;;;;;;;19.52;3.20;;;;;;;4.90;100.00;102887.81;4993194;28;20049;-76
2024/01/25 02:58:51;;;;;;;13.00;3.28;;;;;;;4.85;100.00;102885.44;4994069;28;20868;-76
2024/01/25 03:01:18;;;;;;;26.15;3.65;;;;;;;4.79;100.00;102883.44;4994144;28;20507;-77
2024/01/25 03:03:45;;;;;;;16.17;3.45;;;;;;;4.75;100.00;102890.53;4993185;28;20050;-77
2024/01/25 03:06:11;;;;;;;22.35;3.85;;;;;;;4.63;100.00;102888.78;4993738;28;20051;-77
2024/01/25 03:08:38;;;;;;;25.63;3.78;;;;;;;4.59;100.00;102882.66;4993645;28;20805;-77
2024/01/25 03:11:05;;;;;;;11.15;2.50;;;;;;;4.58;100.00;102881.91;4993828;28;20459;-77
2024/01/25 03:13:31;;;;;;;14.93;2.83;;;;;;;4.56;100.00;102881.47;4993086;28;20791;-77
2024/01/25 03:15:58;;;;;;;17.15;3.63;;;;;;;4.57;100.00;102882.25;4998701;28;20523;-77
2024/01/25 03:18:25;;;;;;;23.60;3.67;;;;;;;4.56;100.00;102878.09;4999899;28;20057;-77
2024/01/25 03:20:52;;;;;;;24.17;3.83;;;;;;;4.52;100.00;102880.63;5000068;28;20067;-77
2024/01/25 03:23:18;;;;;;;26.50;4.53;;;;;;;4.45;100.00;102890.28;5000329;28;20544;-77
2024/01/25 03:25:45;;;;;;;23.92;3.95;;;;;;;4.39;100.00;102891.69;4999532;28;20050;-77
2024/01/25 03:28:13;;;;;;;20.08;3.00;;;;;;;4.30;100.00;102889.22;4999804;28;20062;-77
2024/01/25 03:30:40;;;;;;;17.65;3.38;;;;;;;4.27;100.00;102895.94;4999154;28;20054;-76
2024/01/25 03:33:06;;;;;;;21.27;4.25;;;;;;;4.26;100.00;102897.06;4999574;28;20046;-77
2024/01/25 03:35:33;;;;;;;14.88;3.28;;;;;;;4.19;100.00;102896.88;4998835;28;20817;-77
2024/01/25 03:38:00;;;;;;;21.42;3.35;;;;;;;4.19;100.00;102891.63;4999865;28;20139;-77
2024/01/25 03:40:26;;;;;;;19.13;3.63;;;;;;;4.15;100.00;102885.50;4999224;28;20051;-77
2024/01/25 03:42:53;;;;;;;21.15;3.50;;;;;;;4.08;100.00;102882.69;5000115;28;20039;-77
2024/01/25 03:45:40;;;;;;;15.23;3.80;;;;;;;4.02;100.00;102884.06;4997657;28;20530;-77
2024/01/25 03:48:06;;;;;;;24.45;5.00;;;;;;;4.00;100.00;102875.72;4999834;28;20066;-77
2024/01/25 03:50:33;;;;;;;18.50;3.50;;;;;;;3.98;100.00;102872.69;4998782;28;20121;-77
2024/01/25 03:53:00;;;;;;;24.17;4.53;;;;;;;3.93;100.00;102872.97;4999286;28;20047;-77
2024/01/25 03:55:26;;;;;;;22.38;3.47;;;;;;;3.90;100.00;102871.00;4998577;28;20054;-77
2024/01/25 03:57:53;;;;;;;21.95;3.58;;;;;;;3.87;100.00;102869.03;4999554;28;20098;-77
2024/01/25 04:00:19;;;;;;;19.13;3.17;;;;;;;3.86;100.00;102880.69;4999162;28;20042;-77
2024/01/25 04:02:46;;;;;;;17.25;3.42;;;;;;;3.81;100.00;102876.44;4999234;28;20553;-77
2024/01/25 04:05:14;;;;;;;21.15;3.15;;;;;;;3.77;100.00;102885.38;4998904;28;20047;-77
2024/01/25 04:07:40;;;;;;;15.07;3.15;;;;;;;3.74;100.00;102892.06;4999242;28;20038;-76
2024/01/25 04:10:07;;;;;;;26.52;3.67;;;;;;;3.73;100.00;102884.50;4998780;28;20051;-77
2024/01/25 04:12:33;;;;;;;20.35;4.15;;;;;;;3.69;100.00;102877.28;4998846;28;20473;-76
2024/01/25 04:15:00;;;;;;;16.25;3.30;;;;;;;3.66;100.00;102862.16;4999433;28;20051;-77
2024/01/25 04:17:27;;;;;;;19.27;3.83;;;;;;;3.65;100.00;102868.53;4998770;28;20042;-76
2024/01/25 04:19:53;;;;;;;14.18;3.72;;;;;;;3.64;100.00;102874.91;4998971;28;20046;-76
2024/01/25 04:22:20;;;;;;;18.38;3.20;;;;;;;3.63;100.00;102876.00;4999630;28;20039;-76
2024/01/25 04:24:48;;;;;;;24.38;3.83;;;;;;;3.59;100.00;102875.19;4997425;28;20046;-78
2024/01/25 04:27:15;;;;;;;23.17;3.63;;;;;;;3.55;100.00;102882.22;4994670;28;20050;-78
2024/01/25 04:29:42;;;;;;;11.05;2.42;;;;;;;3.52;100.00;102880.25;4996024;28;20039;-78
2024/01/25 04:32:09;;;;;;;20.42;3.75;;;;;;;3.50;100.00;102876.44;4975424;28;20134;-77
2024/01/25 04:34:36;;;;;;;19.40;3.83;;;;;;;3.49;100.00;102888.84;4993789;28;20118;-77
2024/01/25 04:37:03;;;;;;;17.10;3.58;;;;;;;3.49;100.00;102890.72;4974967;28;20077;-78
2024/01/25 04:39:30;;;;;;;20.13;3.45;;;;;;;3.47;100.00;102891.03;4974181;28;20055;-78
2024/01/25 04:41:56;;;;;;;20.83;2.92;;;;;;;3.45;100.00;102892.47;4990350;28;20049;-78
2024/01/25 04:44:26;;;;;;;25.90;3.28;;;;;;;3.42;100.00;102887.91;4996040;28;20051;-77
2024/01/25 04:46:54;;;;;;;13.23;3.55;;;;;;;3.39;100.00;102884.06;4995869;28;20039;-78
2024/01/25 04:49:20;;;;;;;19.55;4.13;;;;;;;3.33;100.00;102896.72;4992516;28;20098;-77
2024/01/25 04:51:47;;;;;;;16.10;3.72;;;;;;;3.32;100.00;102891.78;4992129;28;20085;-78
2024/01/25 04:54:15;;;;;;;22.30;3.92;;;;;;;3.29;100.00;102889.81;4992289;28;20171;-77
2024/01/25 04:56:42;;;;;;;23.75;3.60;;;;;;;3.26;100.00;102885.22;4991047;28;20039;-77
2024/01/25 04:59:09;;;;;;;14.57;3.50;;;;;;;3.23;100.00;102888.53;4995570;28;20114;-78
2024/01/25 05:01:36;;;;;;;16.80;3.47;;;;;;;3.22;100.00;102885.13;4997670;28;20039;-78
2024/01/25 05:04:03;;;;;;;20.85;3.92;;;;;;;3.21;100.00;102885.47;4993780;28;20051;-78
2024/01/25 05:06:30;;;;;;;25.35;4.40;;;;;;;3.20;100.00;102894.50;4992341;28;20047;-77
2024/01/25 05:08:57;;;;;;;19.50;3.60;;;;;;;3.19;100.00;102898.22;4991417;28;20070;-77
2024/01/25 05:11:23;;;;;;;19.08;3.55;;;;;;;3.17;100.00;102897.78;4992222;28;20047;-77
2024/01/25 05:13:50;;;;;;;26.67;3.28;;;;;;;3.16;100.00;102901.53;4993829;28;20074;-78
2024/01/25 05:16:17;;;;;;;13.07;2.88;;;;;;;3.13;100.00;102900.31;4992391;28;20413;-78
2024/01/25 05:18:44;;;;;;;26.10;3.08;;;;;;;3.13;100.00;102899.56;4991956;28;20062;-78
2024/01/25 05:21:11;;;;;;;18.58;3.83;;;;;;;3.12;100.00;102895.41;4992469;28;20057;-77
2024/01/25 05:23:37;;;;;;;23.55;3.88;;;;;;;3.12;100.00;102898.03;4995168;28;20895;-77
2024/01/25 05:26:06;;;;;;;13.60;3.42;;;;;;;3.12;100.00;102905.91;4995507;28;20157;-77
2024/01/25 05:28:32;;;;;;;24.70;3.45;;;;;;;3.10;100.00;102913.38;4991202;28;20053;-78
2024/01/25 05:30:59;;;;;;;16.83;3.75;;;;;;;3.09;100.00;102909.22;4994843;28;21030;-77
2024/01/25 05:33:28;;;;;;;31.35;3.90;;;;;;;3.08;100.00;102902.44;4994222;28;20042;-77
2024/01/25 05:35:55;;;;;;;17.85;3.53;;;;;;;3.06;100.00;102897.50;4995188;28;20079;-78
2024/01/25 05:38:22;;;;;;;19.75;4.13;;;;;;;3.05;100.00;102906.50;4992046;28;20046;-77
2024/01/25 05:40:48;;;;;;;16.85;3.83;;;;;;;3.04;100.00;102918.13;4995518;28;20038;-77
2024/01/25 05:43:15;;;;;;;19.80;4.25;;;;;;;3.03;100.00;102919.22;4995148;28;20467;-77
2024/01/25 05:45:43;;;;;;;23.95;4.22;;;;;;;3.05;100.00;102918.88;4994602;28;20470;-75
2024/01/25 05:48:09;;;;;;;20.13;3.83;;;;;;;3.06;100.00;102915.91;4994971;28;20142;-75
2024/01/25 05:50:36;;;;;;;27.13;4.97;;;;;;;3.06;100.00;102923.03;4994591;28;20058;-75
2024/01/25 05:53:03;;;;;;;15.98;3.38;;;;;;;3.06;100.00;102921.19;4993921;28;20142;-75
2024/01/25 05:55:29;;;;;;;19.88;3.22;;;;;;;3.06;100.00;102921.19;4994536;28;20129;-76
2024/01/25 05:57:56;;;;;;;16.17;3.45;;;;;;;3.06;100.00;102915.91;4994526;28;20577;-76
2024/01/25 06:00:23;;;;;;;17.83;3.38;;;;;;;3.07;100.00;102914.06;4993660;28;20085;-76
2024/01/25 06:02:49;;;;;;;23.60;3.90;;;;;;;3.08;100.00;102908.44;4993769;28;20564;-76
2024/01/25 06:05:16;;;;;;;17.58;4.13;;;;;;;3.08;100.00;102912.94;4994281;28;20129;-76
2024/01/25 06:07:43;;;;;;;22.00;3.15;;;;;;;3.08;100.00;102915.59;4993997;28;20142;-75
2024/01/25 06:10:10;;;;;;;15.98;3.78;;;;;;;3.09;100.00;102930.28;4993691;28;20518;-76
2024/01/25 06:12:37;;;;;;;22.85;3.78;;;;;;;3.08;100.00;102936.63;4991115;28;20125;-76
2024/01/25 06:15:04;;;;;;;27.50;4.20;;;;;;;3.09;100.00;102927.66;4993907;28;20137;-76
2024/01/25 06:17:31;;;;;;;20.40;3.42;;;;;;;3.06;100.00;102931.72;4993590;28;20055;-76
2024/01/25 06:19:58;;;;;;;22.85;3.60;;;;;;;3.05;100.00;102926.78;4993456;28;20047;-76
2024/01/25 06:22:25;;;;;;;26.27;3.80;;;;;;;3.06;100.00;102925.69;4993222;28;20046;-76
2024/01/25 06:24:51;;;;;;;20.05;3.70;;;;;;;3.05;100.00;102924.16;4993538;28;20042;-76
2024/01/25 06:27:18;;;;;;;30.35;4.68;;;;;;;3.04;100.00;102928.66;4994298;28;20046;-76
2024/01/25 06:29:45;;;;;;;31.95;4.25;;;;;;;3.05;100.00;102929.41;4993715;28;20063;-76
2024/01/25 06:32:11;;;;;;;12.68;3.15;;;;;;;3.04;100.00;102938.41;4993578;28;20621;-77
2024/01/25 06:34:48;;;;;;;30.30;4.03;;;;;;;3.03;100.00;102937.63;4993515;28;20051;-77
2024/01/25 06:37:15;;;;;;;13.38;3.85;;;;;;;3.03;100.00;102936.88;4994135;28;20494;-78
2024/01/25 06:39:42;;;;;;;30.25;4.22;;;;;;;3.02;100.00;102933.47;4995912;28;20518;-78
2024/01/25 06:42:09;;;;;;;28.88;4.55;;;;;;;3.00;100.00;102939.06;4993091;28;20083;-76
2024/01/25 06:44:35;;;;;;;17.95;4.18;;;;;;;2.99;100.00;102937.53;4993824;28;20047;-77
2024/01/25 06:47:02;;;;;;;19.70;4.75;;;;;;;2.97;100.00;102934.47;4994178;28;20597;-76
2024/01/25 06:49:28;;;;;;;21.45;5.03;;;;;;;2.98;100.00;102943.13;4992090;28;20065;-77
2024/01/25 06:51:55;;;;;;;21.35;5.35;;;;;;;3.00;100.00;102940.94;4994016;28;20066;-76
2024/01/25 06:54:22;;;;;;;32.60;6.60;;;;;;;3.00;100.00;102944.31;4993303;28;20047;-75
2024/01/25 06:56:51;;;;;;;30.63;6.65;;;;;;;3.00;100.00;102941.69;4993589;28;20547;-76
2024/01/25 06:59:17;;;;;;;21.05;5.43;;;;;;;2.99;100.00;102942.03;4993105;28;20097;-76
2024/01/25 07:01:44;;;;;;;29.38;6.15;;;;;;;2.99;100.00;102942.03;4993242;28;20058;-76
2024/01/25 07:04:12;;;;;;;30.27;6.18;;;;;;;2.97;100.00;102947.63;4989388;28;20049;-76
2024/01/25 07:06:39;;;;;;;20.15;5.70;;;;;;;2.98;100.00;102951.78;4993311;28;20495;-75
2024/01/25 07:09:05;;;;;;;19.77;5.05;;;;;;;2.97;100.00;102950.25;4993373;28;20051;-76
2024/01/25 07:11:32;;;;;;;27.30;6.95;;;;;;;2.96;100.00;102946.09;4991884;28;20135;-75
2024/01/25 07:13:59;;;;;;;25.00;6.35;;;;;;;2.95;100.00;102951.69;4993647;28;20078;-75
2024/01/25 07:16:25;;;;;;;33.28;6.45;;;;;;;2.96;100.00;102946.09;4992482;28;20431;-75
2024/01/25 07:18:52;;;;;;;34.30;6.68;;;;;;;2.97;100.00;102949.50;4993499;28;20054;-76
2024/01/25 07:21:19;;;;;;;24.60;5.40;;;;;;;2.98;100.00;102943.13;4993426;28;20581;-76
2024/01/25 07:23:46;;;;;;;26.40;5.75;;;;;;;3.00;100.00;102951.47;4993669;28;20043;-77
2024/01/25 07:26:19;;;;;;;33.83;6.28;;;;;;;3.00;100.00;102951.47;4992775;28;20054;-76
2024/01/25 07:28:46;;;;;;;28.50;6.00;;;;;;;3.02;100.00;102954.53;4990055;28;20043;-76
2024/01/25 07:31:13;;;;;;;20.85;5.43;;;;;;;3.02;100.00;102957.16;4975423;28;20042;-76
2024/01/25 07:33:39;;;;;;;29.38;6.25;;;;;;;3.03;100.00;102953.44;4992939;28;20074;-77
2024/01/25 07:36:06;;;;;;;25.08;6.03;;;;;;;3.05;100.00;102945.19;4976308;28;20054;-77
2024/01/25 07:38:33;;;;;;;26.33;5.93;;;;;;;3.05;100.00;102935.44;4992840;28;20521;-76
2024/01/25 07:40:59;;;;;;;26.73;5.90;;;;;;;3.06;100.00;102934.34;4993496;28;20632;-77
2024/01/25 07:43:26;;;;;;;30.73;5.88;;;;;;;3.08;100.00;102941.91;4995687;28;20047;-78
2024/01/25 07:45:53;;;;;;;30.85;6.20;;;;;;;3.09;100.00;102940.81;5001233;28;20042;-78
2024/01/25 07:48:20;;;;;;;29.75;6.55;;;;;;;3.11;100.00;102944.63;4975283;28;20054;-77
2024/01/25 07:50:47;;;;;;;32.08;7.20;;;;;;;3.13;100.00;102937.16;4993372;28;20075;-77
2024/01/25 07:53:16;;;;;;;27.58;7.75;;;;;;;3.15;100.00;102939.47;4992803;28;20047;-77
2024/01/25 07:55:42;;;;;;;29.50;8.38;;;;;;;3.17;100.00;102929.38;4993506;28;20042;-76
2024/01/25 07:58:10;;;;;;;29.38;8.48;;;;;;;3.18;100.00;102938.81;4993583;28;20167;-78
2024/01/25 08:00:36;;;;;;;26.63;8.10;;;;;;;3.20;100.00;102941.88;4992097;28;20503;-77
2024/01/25 08:03:03;;;;;;;30.02;8.30;;;;;;;3.20;100.00;102941.88;4995471;28;20077;-77
2024/01/25 08:05:30;;;;;;;30.27;7.75;;;;;;;3.21;100.00;102935.47;4996207;28;20051;-77
2024/01/25 08:08:10;;;;;;;31.05;8.10;;;;;;;3.24;100.00;102947.97;4980720;28;20050;-77
2024/01/25 08:10:37;;;;;;;30.65;8.90;;;;;;;3.27;100.00;102955.19;4996070;28;20066;-76
2024/01/25 08:13:04;;;;;;;21.95;9.43;;;;;;;3.27;100.00;102955.97;4980123;28;20074;-77
2024/01/25 08:15:33;;;;;;;22.48;10.05;;;;;;;3.30;100.00;102952.66;4997735;28;20046;-78
2024/01/25 08:18:00;;;;;;;35.88;10.23;;;;;;;3.32;100.00;102958.34;4980197;28;20062;-76
2024/01/25 08:20:28;;;;;;;29.38;9.48;;;;;;;3.36;100.00;102961.09;4998901;28;20050;-76
2024/01/25 08:22:55;;;;;;;33.85;10.65;;;;;;;3.39;100.00;102964.91;4997156;28;20121;-76
2024/01/25 08:25:23;;;;;;;27.25;9.45;;;;;;;3.43;100.00;102971.81;4997021;28;20039;-78
2024/01/25 08:27:50;;;;;;;35.03;9.40;;;;;;;3.48;100.00;102976.84;4982136;28;20051;-79
2024/01/25 08:30:17;;;;;;;29.90;8.93;;;;;;;3.52;100.00;102964.53;5001891;28;20047;-79
2024/01/25 08:32:44;;;;;;;35.47;9.05;;;;;;;3.55;100.00;102974.41;4998151;28;20503;-76
2024/01/25 08:35:11;;;;;;;33.20;8.00;;;;;;;3.60;100.00;102974.13;4996031;28;20046;-76
2024/01/25 08:37:39;;;;;;;24.20;7.85;;;;;;;3.61;100.00;102970.41;4994772;28;20051;-75
2024/01/25 08:40:06;;;;;;;28.63;7.38;;;;;;;3.64;100.00;102961.81;4996856;28;20050;-77
2024/01/25 08:42:33;;;;;;;34.17;7.47;;;;;;;3.68;100.00;102965.31;4978332;28;20186;-79
2024/01/25 08:45:00;;;;;;;18.67;6.13;;;;;;;3.74;100.00;102962.44;4999180;28;20057;-78
2024/01/25 08:47:27;;;;;;;29.05;6.65;;;;;;;3.78;100.00;102965.94;4996643;28;20059;-77
2024/01/25 08:49:54;;;;;;;22.17;4.72;;;;;;;3.81;100.00;102963.38;4998187;28;20083;-77
2024/01/25 08:52:21;;;;;;;18.00;4.68;;;;;;;3.87;100.00;102974.44;4995752;28;20057;-73
2024/01/25 08:54:48;;;;;;;28.67;5.25;;;;;;;3.92;100.00;102988.16;4995413;28;20050;-74
2024/01/25 08:57:15;;;;;;;23.02;5.90;;;;;;;3.96;100.00;102986.38;4995074;28;20102;-74
2024/01/25 08:59:42;;;;;;;22.58;4.93;;;;;;;4.01;100.00;102985.31;4997208;28;20070;-76
2024/01/25 09:02:08;;;;;;;24.50;5.15;;;;;;;4.07;100.00;102976.06;4995308;28;20046;-76
2024/01/25 09:04:36;;;;;;;27.42;4.85;;;;;;;4.13;100.00;102966.03;4995476;28;20093;-76
2024/01/25 09:07:03;;;;;;;21.35;4.88;;;;;;;4.19;100.00;102973.34;4992473;28;20486;-76
2024/01/25 09:09:30;;;;;;;29.50;6.10;;;;;;;4.21;100.00;102973.78;4993949;28;20145;-75
2024/01/25 09:11:56;;;;;;;21.05;5.65;;;;;;;4.28;100.00;102987.13;4994840;28;20126;-75
2024/01/25 09:14:23;;;;;;;26.88;4.93;;;;;;;4.31;100.00;102967.97;4994677;28;20043;-76
2024/01/25 09:16:50;;;;;;;21.23;4.82;;;;;;;4.33;100.00;102965.78;4995228;28;20054;-76
2024/01/25 09:19:17;;;;;;;24.33;5.13;;;;;;;4.40;100.00;102980.22;4977197;28;20588;-75
2024/01/25 09:21:44;;;;;;;23.77;5.25;;;;;;;4.44;100.00;102981.06;4994796;28;20085;-75
2024/01/25 09:24:10;;;;;;;25.15;4.93;;;;;;;4.51;100.00;102991.78;4995362;28;20053;-75
2024/01/25 09:26:37;;;;;;;16.42;4.50;;;;;;;4.57;100.00;102982.50;4995111;28;20039;-75
2024/01/25 09:29:04;;;;;;;17.85;4.97;;;;;;;4.64;100.00;102993.19;4994413;28;20430;-76
2024/01/25 09:31:31;;;;;;;24.92;5.43;;;;;;;4.72;100.00;102986.97;4994492;28;20078;-76
2024/01/25 09:33:58;;;;;;;25.10;5.53;;;;;;;4.79;100.00;102979.22;4994560;28;20471;-76
2024/01/25 09:36:25;;;;;;;19.55;4.53;;;;;;;4.87;100.00;102972.97;4994933;28;20403;-76
2024/01/25 09:38:52;;;;;;;25.27;5.25;;;;;;;4.92;100.00;102964.78;4995118;28;20093;-76
2024/01/25 09:41:19;;;;;;;20.75;4.75;;;;;;;4.98;100.00;102965.25;4994643;28;20039;-76
2024/01/25 09:43:46;;;;;;;23.45;4.68;;;;;;;5.01;100.00;102965.34;4994644;28;20878;-76
2024/01/25 09:46:15;;;;;;;26.77;6.25;;;;;;;5.08;100.00;102977.16;4994669;28;20043;-76
2024/01/25 09:48:47;;;;;;;38.67;7.15;;;;;;;5.09;100.00;102987.38;4995018;28;20102;-76
2024/01/25 09:51:15;;;;;;;24.30;5.97;;;;;;;5.15;100.00;102990.50;4994023;28;20058;-76
2024/01/25 09:53:41;;;;;;;27.20;4.97;;;;;;;5.19;100.00;102996.63;4977167;28;20047;-76
2024/01/25 09:56:12;;;;;;;30.58;5.80;;;;;;;5.24;100.00;102983.13;4990983;28;20051;-77
2024/01/25 09:58:47;;;;;;;21.02;4.85;;;;;;;5.30;100.00;102979.09;4973163;28;20603;-76
2024/01/25 10:01:15;;;;;;;26.83;4.85;;;;;;;5.42;100.00;102973.66;4991880;28;20047;-76
2024/01/25 10:03:43;;;;;;;34.35;6.30;;;;;;;5.50;100.00;102956.06;5002328;28;20050;-77
2024/01/25 10:06:12;;;;;;;23.40;5.47;;;;;;;5.55;100.00;102947.84;4995766;28;20113;-74
2024/01/25 10:08:39;;;;;;;16.60;4.60;;;;;;;5.59;100.00;102940.75;4990798;28;20086;-74
2024/01/25 10:11:08;;;;;;;19.73;5.57;;;;;;;5.62;100.00;102945.31;4995270;28;20065;-75
2024/01/25 10:14:01;;;;;;;28.30;5.80;;;;;;;5.70;100.00;102955.66;4994215;28;20058;-75
2024/01/25 10:16:28;;;;;;;31.27;6.13;;;;;;;5.78;100.00;102955.78;4991699;28;20133;-76
2024/01/25 10:18:55;;;;;;;30.63;5.45;;;;;;;5.83;100.00;102963.44;4993673;28;20055;-76
2024/01/25 10:21:22;;;;;;;28.50;6.22;;;;;;;5.87;100.00;102961.63;4993356;28;20874;-76
2024/01/25 10:23:51;;;;;;;25.00;5.95;;;;;;;5.92;100.00;102958.72;4975385;28;20055;-77
2024/01/25 10:26:20;;;;;;;33.17;6.28;;;;;;;5.97;100.00;102951.25;4993277;28;20703;-76
2024/01/25 10:28:53;;;;;;;28.48;5.10;;;;;;;6.09;100.00;102966.16;4995911;28;20133;-77
2024/01/25 10:31:29;;;;;;;31.33;5.90;;;;;;;6.16;100.00;102966.25;4995427;28;20043;-77
2024/01/25 10:33:57;;;;;;;26.30;5.57;;;;;;;6.25;100.00;102953.56;4993810;28;20134;-79
2024/01/25 10:36:26;;;;;;;20.38;5.55;;;;;;;6.28;100.00;102952.84;4977247;28;20051;-78
2024/01/25 10:38:55;;;;;;;23.75;5.50;;;;;;;6.35;100.00;102965.41;4979145;28;20538;-78
2024/01/25 10:41:23;;;;;;;24.38;5.60;;;;;;;6.40;100.00;102951.13;4978812;28;20054;-78
2024/01/25 10:43:54;;;;;;;27.73;5.30;;;;;;;6.40;100.00;102948.47;4998013;28;20078;-79
2024/01/25 10:46:21;;;;;;;30.98;6.28;;;;;;;6.41;100.00;102949.97;4998281;28;20058;-83
2024/01/25 10:48:48;;;;;;;37.08;5.65;;;;;;;6.47;100.00;102961.78;4982118;28;20106;-79
2024/01/25 10:51:18;;;;;;;19.85;5.68;;;;;;;6.51;100.00;102952.78;4995271;28;20043;-79
2024/01/25 10:53:45;;;;;;;25.88;5.78;;;;;;;6.56;100.00;102944.53;4994624;28;20852;-78
2024/01/25 10:56:13;;;;;;;20.27;5.85;;;;;;;6.62;100.00;102943.09;5000046;28;20503;-79
2024/01/25 10:58:41;;;;;;;29.50;5.55;;;;;;;6.68;100.00;102944.31;5000260;28;20106;-79
2024/01/25 11:01:10;;;;;;;23.45;5.35;;;;;;;6.72;100.00;102940.97;4999035;28;20047;-79
2024/01/25 11:03:42;;;;;;;26.50;6.22;;;;;;;6.78;100.00;102932.34;4996892;28;20051;-78
2024/01/25 11:06:11;;;;;;;20.90;5.35;;;;;;;6.80;100.00;102953.91;4977256;28;20058;-82
2024/01/25 11:08:39;;;;;;;20.83;5.53;;;;;;;6.86;100.00;102928.66;4993806;28;20059;-76
2024/01/25 11:11:10;;;;;;;30.88;5.82;;;;;;;6.90;100.00;102907.50;4992503;28;20118;-77
2024/01/25 11:13:41;;;;;;;20.35;5.28;;;;;;;6.95;100.00;102899.25;4993226;28;20046;-78
2024/01/25 11:16:15;;;;;;;;;;;;;;;7.02;100.00;102908.03;4992931;28;20529;-78
2024/01/25 11:18:54;;;;;;;14.73;5.35;;;;;;;7.11;100.00;102901.69;4993247;28;19930;-76
2024/01/25 11:21:28;;;;;;;21.90;5.82;;;;;;;7.16;100.00;102896.84;4989771;28;20134;-76